sensor_id;sensor_type;location;lat;lon;timestamp;temperature;humidity
666;DHT22;315;48.738;9.126;2023-07-09T00:00:52;22.40;99.90
666;DHT22;315;48.738;9.126;2023-07-09T00:03:18;22.40;99.90
666;DHT22;315;48.738;9.126;2023-07-09T00:05:47;22.40;99.90
666;DHT22;315;48.738;9.126;2023-07-09T00:08:28;22.40;99.90
666;DHT22;315;48.738;9.126;2023-07-09T00:10:55;22.30;99.90
666;DHT22;315;48.738;9.126;2023-07-09T00:13:21;22.30;99.90
666;DHT22;315;48.738;9.126;2023-07-09T00:15:48;22.20;99.90
666;DHT22;315;48.738;9.126;2023-07-09T00:18:13;22.30;99.90
666;DHT22;315;48.738;9.126;2023-07-09T00:20:39;22.50;99.90
666;DHT22;315;48.738;9.126;2023-07-09T00:23:06;22.10;99.90
666;DHT22;315;48.738;9.126;2023-07-09T00:25:32;22.10;99.90
666;DHT22;315;48.738;9.126;2023-07-09T00:28:01;22.00;99.90
666;DHT22;315;48.738;9.126;2023-07-09T00:30:27;22.00;99.90
666;DHT22;315;48.738;9.126;2023-07-09T00:32:52;22.00;99.90
666;DHT22;315;48.738;9.126;2023-07-09T00:35:20;22.00;99.90
666;DHT22;315;48.738;9.126;2023-07-09T00:37:46;22.10;99.90
666;DHT22;315;48.738;9.126;2023-07-09T00:40:18;22.10;99.90
666;DHT22;315;48.738;9.126;2023-07-09T00:42:46;22.10;99.90
666;DHT22;315;48.738;9.126;2023-07-09T00:45:20;22.10;99.90
666;DHT22;315;48.738;9.126;2023-07-09T00:48:06;22.10;99.90
666;DHT22;315;48.738;9.126;2023-07-09T00:50:53;22.10;99.90
666;DHT22;315;48.738;9.126;2023-07-09T00:53:31;22.10;99.90
666;DHT22;315;48.738;9.126;2023-07-09T00:56:06;22.00;99.90
666;DHT22;315;48.738;9.126;2023-07-09T00:58:35;22.00;99.90
666;DHT22;315;48.738;9.126;2023-07-09T01:01:04;21.90;99.90
666;DHT22;315;48.738;9.126;2023-07-09T01:03:35;21.80;99.90
666;DHT22;315;48.738;9.126;2023-07-09T01:06:02;21.70;99.90
666;DHT22;315;48.738;9.126;2023-07-09T01:08:32;21.60;99.90
666;DHT22;315;48.738;9.126;2023-07-09T01:10:58;21.70;99.90
666;DHT22;315;48.738;9.126;2023-07-09T01:13:25;21.60;99.90
666;DHT22;315;48.738;9.126;2023-07-09T01:15:51;21.60;99.90
666;DHT22;315;48.738;9.126;2023-07-09T01:18:17;21.60;99.90
666;DHT22;315;48.738;9.126;2023-07-09T01:20:43;21.50;99.90
666;DHT22;315;48.738;9.126;2023-07-09T01:23:09;21.50;99.90
666;DHT22;315;48.738;9.126;2023-07-09T01:25:38;21.50;99.90
666;DHT22;315;48.738;9.126;2023-07-09T01:28:06;21.40;99.90
666;DHT22;315;48.738;9.126;2023-07-09T01:30:38;21.40;99.90
666;DHT22;315;48.738;9.126;2023-07-09T01:33:04;21.40;99.90
666;DHT22;315;48.738;9.126;2023-07-09T01:35:33;21.40;99.90
666;DHT22;315;48.738;9.126;2023-07-09T01:37:59;21.40;99.90
666;DHT22;315;48.738;9.126;2023-07-09T01:40:26;21.40;99.90
666;DHT22;315;48.738;9.126;2023-07-09T01:42:53;21.30;99.90
666;DHT22;315;48.738;9.126;2023-07-09T01:45:21;21.30;99.90
666;DHT22;315;48.738;9.126;2023-07-09T01:47:47;21.30;99.90
666;DHT22;315;48.738;9.126;2023-07-09T01:50:13;21.30;99.90
666;DHT22;315;48.738;9.126;2023-07-09T01:52:43;21.30;99.90
666;DHT22;315;48.738;9.126;2023-07-09T01:55:11;21.30;99.90
666;DHT22;315;48.738;9.126;2023-07-09T01:57:37;21.40;99.90
666;DHT22;315;48.738;9.126;2023-07-09T02:00:14;21.30;99.90
666;DHT22;315;48.738;9.126;2023-07-09T02:02:45;21.20;99.90
666;DHT22;315;48.738;9.126;2023-07-09T02:05:16;21.20;99.90
666;DHT22;315;48.738;9.126;2023-07-09T02:07:42;21.20;99.90
666;DHT22;315;48.738;9.126;2023-07-09T02:10:08;21.20;99.90
666;DHT22;315;48.738;9.126;2023-07-09T02:12:34;21.20;99.90
666;DHT22;315;48.738;9.126;2023-07-09T02:14:59;21.20;99.90
666;DHT22;315;48.738;9.126;2023-07-09T02:17:25;21.20;99.90
666;DHT22;315;48.738;9.126;2023-07-09T02:19:50;21.10;99.90
666;DHT22;315;48.738;9.126;2023-07-09T02:22:16;21.00;99.90
666;DHT22;315;48.738;9.126;2023-07-09T02:24:41;21.00;99.90
666;DHT22;315;48.738;9.126;2023-07-09T02:27:08;21.00;99.90
666;DHT22;315;48.738;9.126;2023-07-09T02:29:36;20.90;99.90
666;DHT22;315;48.738;9.126;2023-07-09T02:32:02;20.90;99.90
666;DHT22;315;48.738;9.126;2023-07-09T02:34:28;20.90;99.90
666;DHT22;315;48.738;9.126;2023-07-09T02:36:55;20.90;99.90
666;DHT22;315;48.738;9.126;2023-07-09T02:39:22;20.90;99.90
666;DHT22;315;48.738;9.126;2023-07-09T02:41:48;20.90;99.90
666;DHT22;315;48.738;9.126;2023-07-09T02:44:14;20.90;99.90
666;DHT22;315;48.738;9.126;2023-07-09T02:46:40;20.80;99.90
666;DHT22;315;48.738;9.126;2023-07-09T02:49:06;20.80;99.90
666;DHT22;315;48.738;9.126;2023-07-09T02:51:33;20.80;99.90
666;DHT22;315;48.738;9.126;2023-07-09T02:54:01;20.70;99.90
666;DHT22;315;48.738;9.126;2023-07-09T02:56:27;20.70;99.90
666;DHT22;315;48.738;9.126;2023-07-09T02:58:52;20.60;99.90
666;DHT22;315;48.738;9.126;2023-07-09T03:01:18;20.70;99.90
666;DHT22;315;48.738;9.126;2023-07-09T03:03:51;20.60;99.90
666;DHT22;315;48.738;9.126;2023-07-09T03:06:19;20.60;99.90
666;DHT22;315;48.738;9.126;2023-07-09T03:08:45;20.60;99.90
666;DHT22;315;48.738;9.126;2023-07-09T03:11:12;20.70;99.90
666;DHT22;315;48.738;9.126;2023-07-09T03:13:38;20.60;99.90
666;DHT22;315;48.738;9.126;2023-07-09T03:16:04;20.60;99.90
666;DHT22;315;48.738;9.126;2023-07-09T03:18:29;20.60;99.90
666;DHT22;315;48.738;9.126;2023-07-09T03:20:55;20.60;99.90
666;DHT22;315;48.738;9.126;2023-07-09T03:23:21;20.60;99.90
666;DHT22;315;48.738;9.126;2023-07-09T03:25:46;20.60;99.90
666;DHT22;315;48.738;9.126;2023-07-09T03:28:12;20.60;99.90
666;DHT22;315;48.738;9.126;2023-07-09T03:30:42;20.60;99.90
666;DHT22;315;48.738;9.126;2023-07-09T03:33:08;20.50;99.90
666;DHT22;315;48.738;9.126;2023-07-09T03:35:34;20.50;99.90
666;DHT22;315;48.738;9.126;2023-07-09T03:38:00;20.50;99.90
666;DHT22;315;48.738;9.126;2023-07-09T03:40:26;20.50;99.90
666;DHT22;315;48.738;9.126;2023-07-09T03:42:51;20.50;99.90
666;DHT22;315;48.738;9.126;2023-07-09T03:45:17;20.50;99.90
666;DHT22;315;48.738;9.126;2023-07-09T03:47:42;20.50;99.90
666;DHT22;315;48.738;9.126;2023-07-09T03:50:09;20.60;99.90
666;DHT22;315;48.738;9.126;2023-07-09T03:52:35;20.60;99.90
666;DHT22;315;48.738;9.126;2023-07-09T03:55:01;20.50;99.90
666;DHT22;315;48.738;9.126;2023-07-09T03:57:31;20.50;99.90
666;DHT22;315;48.738;9.126;2023-07-09T03:59:57;20.60;99.90
666;DHT22;315;48.738;9.126;2023-07-09T04:02:22;20.50;99.90
666;DHT22;315;48.738;9.126;2023-07-09T04:04:48;20.50;99.90
666;DHT22;315;48.738;9.126;2023-07-09T04:07:14;20.50;99.90
666;DHT22;315;48.738;9.126;2023-07-09T04:09:40;20.40;99.90
666;DHT22;315;48.738;9.126;2023-07-09T04:12:06;20.40;99.90
666;DHT22;315;48.738;9.126;2023-07-09T04:14:32;20.40;99.90
666;DHT22;315;48.738;9.126;2023-07-09T04:16:57;20.50;99.90
666;DHT22;315;48.738;9.126;2023-07-09T04:19:23;20.60;99.90
666;DHT22;315;48.738;9.126;2023-07-09T04:21:49;20.70;99.90
666;DHT22;315;48.738;9.126;2023-07-09T04:24:18;20.80;99.90
666;DHT22;315;48.738;9.126;2023-07-09T04:26:45;21.00;99.90
666;DHT22;315;48.738;9.126;2023-07-09T04:29:11;21.00;99.90
666;DHT22;315;48.738;9.126;2023-07-09T04:31:37;21.10;99.90
666;DHT22;315;48.738;9.126;2023-07-09T04:34:03;21.20;99.90
666;DHT22;315;48.738;9.126;2023-07-09T04:36:29;21.30;99.90
666;DHT22;315;48.738;9.126;2023-07-09T04:38:54;21.40;99.90
666;DHT22;315;48.738;9.126;2023-07-09T04:41:20;21.60;99.90
666;DHT22;315;48.738;9.126;2023-07-09T04:43:45;21.80;99.90
666;DHT22;315;48.738;9.126;2023-07-09T04:46:11;21.90;99.90
666;DHT22;315;48.738;9.126;2023-07-09T04:48:37;22.10;99.90
666;DHT22;315;48.738;9.126;2023-07-09T04:51:04;22.20;99.90
666;DHT22;315;48.738;9.126;2023-07-09T04:53:29;22.20;99.90
666;DHT22;315;48.738;9.126;2023-07-09T04:55:55;22.30;99.90
666;DHT22;315;48.738;9.126;2023-07-09T04:58:21;22.40;99.90
666;DHT22;315;48.738;9.126;2023-07-09T05:00:46;22.40;99.90
666;DHT22;315;48.738;9.126;2023-07-09T05:03:12;22.50;99.90
666;DHT22;315;48.738;9.126;2023-07-09T05:05:45;22.60;99.90
666;DHT22;315;48.738;9.126;2023-07-09T05:08:14;22.80;99.90
666;DHT22;315;48.738;9.126;2023-07-09T05:10:50;22.90;99.90
666;DHT22;315;48.738;9.126;2023-07-09T05:13:16;23.00;99.90
666;DHT22;315;48.738;9.126;2023-07-09T05:15:44;23.00;99.90
666;DHT22;315;48.738;9.126;2023-07-09T05:18:11;23.10;99.90
666;DHT22;315;48.738;9.126;2023-07-09T05:20:37;23.20;99.90
666;DHT22;315;48.738;9.126;2023-07-09T05:23:03;23.40;99.90
666;DHT22;315;48.738;9.126;2023-07-09T05:25:29;23.50;99.90
666;DHT22;315;48.738;9.126;2023-07-09T05:27:55;23.80;99.90
666;DHT22;315;48.738;9.126;2023-07-09T05:30:20;24.00;99.90
666;DHT22;315;48.738;9.126;2023-07-09T05:32:46;24.20;99.90
666;DHT22;315;48.738;9.126;2023-07-09T05:35:13;24.20;99.90
666;DHT22;315;48.738;9.126;2023-07-09T05:37:39;24.20;99.90
666;DHT22;315;48.738;9.126;2023-07-09T05:40:06;24.20;99.90
666;DHT22;315;48.738;9.126;2023-07-09T05:42:32;24.30;99.90
666;DHT22;315;48.738;9.126;2023-07-09T05:44:58;24.50;99.90
666;DHT22;315;48.738;9.126;2023-07-09T05:47:25;24.80;99.90
666;DHT22;315;48.738;9.126;2023-07-09T05:49:50;25.00;99.90
666;DHT22;315;48.738;9.126;2023-07-09T05:52:23;25.20;99.90
666;DHT22;315;48.738;9.126;2023-07-09T05:54:50;25.50;99.90
666;DHT22;315;48.738;9.126;2023-07-09T05:57:16;25.50;99.90
666;DHT22;315;48.738;9.126;2023-07-09T05:59:42;25.70;99.90
666;DHT22;315;48.738;9.126;2023-07-09T06:02:11;25.60;99.90
666;DHT22;315;48.738;9.126;2023-07-09T06:04:37;25.60;99.90
666;DHT22;315;48.738;9.126;2023-07-09T06:07:03;25.80;99.90
666;DHT22;315;48.738;9.126;2023-07-09T06:09:29;26.10;99.90
666;DHT22;315;48.738;9.126;2023-07-09T06:11:55;26.40;99.90
666;DHT22;315;48.738;9.126;2023-07-09T06:14:20;26.70;99.90
666;DHT22;315;48.738;9.126;2023-07-09T06:16:46;26.70;99.90
666;DHT22;315;48.738;9.126;2023-07-09T06:19:12;26.90;99.90
666;DHT22;315;48.738;9.126;2023-07-09T06:21:38;27.00;99.90
666;DHT22;315;48.738;9.126;2023-07-09T06:24:05;27.30;99.90
666;DHT22;315;48.738;9.126;2023-07-09T06:26:30;27.40;99.90
666;DHT22;315;48.738;9.126;2023-07-09T06:28:56;27.40;99.90
666;DHT22;315;48.738;9.126;2023-07-09T06:31:21;27.50;99.70
666;DHT22;315;48.738;9.126;2023-07-09T06:33:49;27.70;99.40
666;DHT22;315;48.738;9.126;2023-07-09T06:36:16;28.00;98.90
666;DHT22;315;48.738;9.126;2023-07-09T06:38:41;28.40;96.40
666;DHT22;315;48.738;9.126;2023-07-09T06:41:07;28.60;95.50
666;DHT22;315;48.738;9.126;2023-07-09T06:43:32;28.90;94.00
666;DHT22;315;48.738;9.126;2023-07-09T06:45:59;29.10;92.80
666;DHT22;315;48.738;9.126;2023-07-09T06:48:27;29.30;90.40
666;DHT22;315;48.738;9.126;2023-07-09T06:50:54;29.60;87.10
666;DHT22;315;48.738;9.126;2023-07-09T06:53:21;29.50;84.30
666;DHT22;315;48.738;9.126;2023-07-09T06:55:47;29.90;82.90
666;DHT22;315;48.738;9.126;2023-07-09T06:58:15;30.30;80.70
666;DHT22;315;48.738;9.126;2023-07-09T07:00:41;30.50;78.90
666;DHT22;315;48.738;9.126;2023-07-09T07:03:08;30.50;76.10
666;DHT22;315;48.738;9.126;2023-07-09T07:05:34;30.40;76.00
666;DHT22;315;48.738;9.126;2023-07-09T07:08:00;30.40;75.50
666;DHT22;315;48.738;9.126;2023-07-09T07:10:25;30.30;74.20
666;DHT22;315;48.738;9.126;2023-07-09T07:12:52;30.40;75.20
666;DHT22;315;48.738;9.126;2023-07-09T07:15:18;30.40;75.10
666;DHT22;315;48.738;9.126;2023-07-09T07:17:44;30.70;75.70
666;DHT22;315;48.738;9.126;2023-07-09T07:20:12;30.80;76.40
666;DHT22;315;48.738;9.126;2023-07-09T07:22:38;31.10;75.50
666;DHT22;315;48.738;9.126;2023-07-09T07:25:04;31.40;73.60
666;DHT22;315;48.738;9.126;2023-07-09T07:27:30;31.50;72.20
666;DHT22;315;48.738;9.126;2023-07-09T07:29:56;31.70;71.50
666;DHT22;315;48.738;9.126;2023-07-09T07:32:21;31.90;70.30
666;DHT22;315;48.738;9.126;2023-07-09T07:34:47;32.10;70.00
666;DHT22;315;48.738;9.126;2023-07-09T07:37:14;31.90;69.40
666;DHT22;315;48.738;9.126;2023-07-09T07:39:39;31.90;68.00
666;DHT22;315;48.738;9.126;2023-07-09T07:42:06;32.20;66.90
666;DHT22;315;48.738;9.126;2023-07-09T07:44:32;32.60;65.10
666;DHT22;315;48.738;9.126;2023-07-09T07:46:57;32.90;64.00
666;DHT22;315;48.738;9.126;2023-07-09T07:49:23;32.90;63.00
666;DHT22;315;48.738;9.126;2023-07-09T07:51:48;33.20;62.10
666;DHT22;315;48.738;9.126;2023-07-09T07:54:14;33.20;60.50
666;DHT22;315;48.738;9.126;2023-07-09T07:56:40;33.50;59.10
666;DHT22;315;48.738;9.126;2023-07-09T07:59:05;33.40;58.90
666;DHT22;315;48.738;9.126;2023-07-09T08:01:31;33.40;58.30
666;DHT22;315;48.738;9.126;2023-07-09T08:03:56;33.40;58.60
666;DHT22;315;48.738;9.126;2023-07-09T08:06:22;33.60;57.70
666;DHT22;315;48.738;9.126;2023-07-09T08:08:48;33.60;57.70
666;DHT22;315;48.738;9.126;2023-07-09T08:11:14;33.60;58.60
666;DHT22;315;48.738;9.126;2023-07-09T08:13:40;33.60;58.20
666;DHT22;315;48.738;9.126;2023-07-09T08:16:07;33.70;58.10
666;DHT22;315;48.738;9.126;2023-07-09T08:18:33;33.50;57.50
666;DHT22;315;48.738;9.126;2023-07-09T08:20:59;33.20;57.40
666;DHT22;315;48.738;9.126;2023-07-09T08:23:25;32.70;57.80
666;DHT22;315;48.738;9.126;2023-07-09T08:25:57;32.80;57.60
666;DHT22;315;48.738;9.126;2023-07-09T08:28:23;33.00;57.10
666;DHT22;315;48.738;9.126;2023-07-09T08:30:52;33.30;56.70
666;DHT22;315;48.738;9.126;2023-07-09T08:33:18;33.90;57.10
666;DHT22;315;48.738;9.126;2023-07-09T08:35:44;34.20;57.10
666;DHT22;315;48.738;9.126;2023-07-09T08:38:09;34.40;56.00
666;DHT22;315;48.738;9.126;2023-07-09T08:40:39;34.70;55.40
666;DHT22;315;48.738;9.126;2023-07-09T08:43:21;34.80;54.60
666;DHT22;315;48.738;9.126;2023-07-09T08:48:50;35.40;52.70
666;DHT22;315;48.738;9.126;2023-07-09T08:51:25;35.40;52.10
666;DHT22;315;48.738;9.126;2023-07-09T08:53:58;35.40;52.00
666;DHT22;315;48.738;9.126;2023-07-09T08:56:25;34.60;52.70
666;DHT22;315;48.738;9.126;2023-07-09T08:58:54;34.90;52.30
666;DHT22;315;48.738;9.126;2023-07-09T09:01:29;35.50;52.30
666;DHT22;315;48.738;9.126;2023-07-09T09:04:01;35.70;50.70
666;DHT22;315;48.738;9.126;2023-07-09T09:06:30;35.70;50.70
666;DHT22;315;48.738;9.126;2023-07-09T09:09:16;35.70;50.50
666;DHT22;315;48.738;9.126;2023-07-09T09:12:15;35.00;50.20
666;DHT22;315;48.738;9.126;2023-07-09T09:14:44;34.90;50.60
666;DHT22;315;48.738;9.126;2023-07-09T09:17:14;35.30;49.60
666;DHT22;315;48.738;9.126;2023-07-09T09:19:55;35.40;49.60
666;DHT22;315;48.738;9.126;2023-07-09T09:25:19;36.20;48.40
666;DHT22;315;48.738;9.126;2023-07-09T09:27:46;36.30;47.60
666;DHT22;315;48.738;9.126;2023-07-09T09:30:14;36.40;47.60
666;DHT22;315;48.738;9.126;2023-07-09T09:32:46;36.60;46.80
666;DHT22;315;48.738;9.126;2023-07-09T09:35:14;36.60;47.00
666;DHT22;315;48.738;9.126;2023-07-09T09:37:43;36.50;46.40
666;DHT22;315;48.738;9.126;2023-07-09T09:40:10;36.30;46.10
666;DHT22;315;48.738;9.126;2023-07-09T09:42:35;36.50;46.20
666;DHT22;315;48.738;9.126;2023-07-09T09:45:02;37.00;46.00
666;DHT22;315;48.738;9.126;2023-07-09T09:47:28;37.50;45.00
666;DHT22;315;48.738;9.126;2023-07-09T09:49:53;37.30;43.60
666;DHT22;315;48.738;9.126;2023-07-09T09:52:20;36.70;42.90
666;DHT22;315;48.738;9.126;2023-07-09T09:54:54;36.70;41.70
666;DHT22;315;48.738;9.126;2023-07-09T09:57:23;36.90;42.80
666;DHT22;315;48.738;9.126;2023-07-09T09:59:50;36.90;43.40
666;DHT22;315;48.738;9.126;2023-07-09T10:02:24;36.90;43.20
666;DHT22;315;48.738;9.126;2023-07-09T10:04:50;37.20;43.00
666;DHT22;315;48.738;9.126;2023-07-09T10:07:27;37.60;42.30
666;DHT22;315;48.738;9.126;2023-07-09T10:09:55;38.10;41.50
666;DHT22;315;48.738;9.126;2023-07-09T10:15:13;38.70;40.00
666;DHT22;315;48.738;9.126;2023-07-09T10:25:51;40.60;38.00
666;DHT22;315;48.738;9.126;2023-07-09T10:31:23;42.00;36.80
666;DHT22;315;48.738;9.126;2023-07-09T10:34:17;42.70;35.00
666;DHT22;315;48.738;9.126;2023-07-09T10:39:26;43.00;33.60
666;DHT22;315;48.738;9.126;2023-07-09T10:41:56;42.60;33.10
666;DHT22;315;48.738;9.126;2023-07-09T10:44:31;41.60;32.70
666;DHT22;315;48.738;9.126;2023-07-09T10:47:02;41.50;32.20
666;DHT22;315;48.738;9.126;2023-07-09T10:49:35;41.00;32.80
666;DHT22;315;48.738;9.126;2023-07-09T10:52:26;40.30;33.30
666;DHT22;315;48.738;9.126;2023-07-09T10:57:57;43.40;31.40
666;DHT22;315;48.738;9.126;2023-07-09T11:00:34;44.60;30.00
666;DHT22;315;48.738;9.126;2023-07-09T11:03:16;43.90;29.30
666;DHT22;315;48.738;9.126;2023-07-09T11:05:43;43.70;29.50
666;DHT22;315;48.738;9.126;2023-07-09T11:08:15;43.80;28.70
666;DHT22;315;48.738;9.126;2023-07-09T11:10:54;44.50;28.30
666;DHT22;315;48.738;9.126;2023-07-09T11:15:51;45.70;28.00
666;DHT22;315;48.738;9.126;2023-07-09T11:18:30;45.80;27.50
666;DHT22;315;48.738;9.126;2023-07-09T11:21:15;44.80;27.30
666;DHT22;315;48.738;9.126;2023-07-09T11:26:21;45.00;27.00
666;DHT22;315;48.738;9.126;2023-07-09T11:29:32;45.30;26.90
666;DHT22;315;48.738;9.126;2023-07-09T11:31:42;46.10;26.40
666;DHT22;315;48.738;9.126;2023-07-09T11:39:22;44.80;26.20
666;DHT22;315;48.738;9.126;2023-07-09T11:41:48;45.20;25.50
666;DHT22;315;48.738;9.126;2023-07-09T11:44:21;44.80;25.60
666;DHT22;315;48.738;9.126;2023-07-09T11:47:14;44.90;25.50
666;DHT22;315;48.738;9.126;2023-07-09T11:50:04;45.30;25.40
666;DHT22;315;48.738;9.126;2023-07-09T11:52:51;44.30;25.20
666;DHT22;315;48.738;9.126;2023-07-09T11:55:42;44.00;25.40
666;DHT22;315;48.738;9.126;2023-07-09T11:58:11;45.70;25.00
666;DHT22;315;48.738;9.126;2023-07-09T12:00:42;46.00;24.70
666;DHT22;315;48.738;9.126;2023-07-09T12:03:21;46.20;24.50
666;DHT22;315;48.738;9.126;2023-07-09T12:05:56;46.50;24.70
666;DHT22;315;48.738;9.126;2023-07-09T12:08:38;46.20;24.60
666;DHT22;315;48.738;9.126;2023-07-09T12:11:05;44.20;25.10
666;DHT22;315;48.738;9.126;2023-07-09T12:13:40;45.30;25.30
666;DHT22;315;48.738;9.126;2023-07-09T12:16:27;46.50;24.80
666;DHT22;315;48.738;9.126;2023-07-09T12:18:53;45.00;24.90
666;DHT22;315;48.738;9.126;2023-07-09T12:21:19;46.10;24.60
666;DHT22;315;48.738;9.126;2023-07-09T12:23:45;47.00;24.30
666;DHT22;315;48.738;9.126;2023-07-09T12:26:17;47.60;24.50
666;DHT22;315;48.738;9.126;2023-07-09T12:28:43;48.40;23.80
666;DHT22;315;48.738;9.126;2023-07-09T12:31:15;49.60;24.00
666;DHT22;315;48.738;9.126;2023-07-09T12:33:49;50.10;24.00
666;DHT22;315;48.738;9.126;2023-07-09T12:36:16;51.10;25.20
666;DHT22;315;48.738;9.126;2023-07-09T12:38:45;51.40;24.80
666;DHT22;315;48.738;9.126;2023-07-09T12:41:24;51.40;25.10
666;DHT22;315;48.738;9.126;2023-07-09T12:43:52;50.10;25.20
666;DHT22;315;48.738;9.126;2023-07-09T12:46:19;50.00;25.60
666;DHT22;315;48.738;9.126;2023-07-09T12:48:46;49.20;25.50
666;DHT22;315;48.738;9.126;2023-07-09T12:51:18;46.20;26.60
666;DHT22;315;48.738;9.126;2023-07-09T12:53:45;45.60;27.20
666;DHT22;315;48.738;9.126;2023-07-09T12:56:13;46.30;26.60
666;DHT22;315;48.738;9.126;2023-07-09T12:58:40;46.90;26.30
666;DHT22;315;48.738;9.126;2023-07-09T13:01:15;47.60;26.00
666;DHT22;315;48.738;9.126;2023-07-09T13:03:41;48.20;26.50
666;DHT22;315;48.738;9.126;2023-07-09T13:06:27;47.70;26.40
666;DHT22;315;48.738;9.126;2023-07-09T13:08:57;47.60;26.80
666;DHT22;315;48.738;9.126;2023-07-09T13:11:23;47.50;26.60
666;DHT22;315;48.738;9.126;2023-07-09T13:14:02;48.40;25.70
666;DHT22;315;48.738;9.126;2023-07-09T13:16:28;46.20;25.50
666;DHT22;315;48.738;9.126;2023-07-09T13:18:54;44.70;26.60
666;DHT22;315;48.738;9.126;2023-07-09T13:21:21;45.50;26.30
666;DHT22;315;48.738;9.126;2023-07-09T13:23:47;45.40;26.70
666;DHT22;315;48.738;9.126;2023-07-09T13:26:15;44.90;26.40
666;DHT22;315;48.738;9.126;2023-07-09T13:28:42;44.30;26.80
666;DHT22;315;48.738;9.126;2023-07-09T13:31:14;43.80;27.10
666;DHT22;315;48.738;9.126;2023-07-09T13:33:44;43.20;27.00
666;DHT22;315;48.738;9.126;2023-07-09T13:36:10;43.30;27.50
666;DHT22;315;48.738;9.126;2023-07-09T13:38:36;42.40;27.90
666;DHT22;315;48.738;9.126;2023-07-09T13:41:11;41.30;26.60
666;DHT22;315;48.738;9.126;2023-07-09T13:43:39;40.90;26.50
666;DHT22;315;48.738;9.126;2023-07-09T13:46:07;41.40;26.40
666;DHT22;315;48.738;9.126;2023-07-09T13:48:34;41.30;26.60
666;DHT22;315;48.738;9.126;2023-07-09T13:51:00;40.80;26.80
666;DHT22;315;48.738;9.126;2023-07-09T13:53:31;40.80;27.60
666;DHT22;315;48.738;9.126;2023-07-09T13:55:57;41.50;26.90
666;DHT22;315;48.738;9.126;2023-07-09T13:58:25;41.30;28.20
666;DHT22;315;48.738;9.126;2023-07-09T14:00:55;40.90;28.70
666;DHT22;315;48.738;9.126;2023-07-09T14:03:28;40.30;29.10
666;DHT22;315;48.738;9.126;2023-07-09T14:05:55;39.20;28.50
666;DHT22;315;48.738;9.126;2023-07-09T14:08:21;39.00;28.60
666;DHT22;315;48.738;9.126;2023-07-09T14:10:48;39.30;29.00
666;DHT22;315;48.738;9.126;2023-07-09T14:13:16;39.30;29.30
666;DHT22;315;48.738;9.126;2023-07-09T14:15:42;39.30;29.10
666;DHT22;315;48.738;9.126;2023-07-09T14:18:16;38.50;30.00
666;DHT22;315;48.738;9.126;2023-07-09T14:20:42;38.20;30.50
666;DHT22;315;48.738;9.126;2023-07-09T14:23:13;37.70;29.30
666;DHT22;315;48.738;9.126;2023-07-09T14:25:39;37.20;29.00
666;DHT22;315;48.738;9.126;2023-07-09T14:28:19;37.00;29.10
666;DHT22;315;48.738;9.126;2023-07-09T14:30:45;37.00;29.00
666;DHT22;315;48.738;9.126;2023-07-09T14:33:14;36.90;29.30
666;DHT22;315;48.738;9.126;2023-07-09T14:35:40;36.60;29.00
666;DHT22;315;48.738;9.126;2023-07-09T14:38:24;36.50;29.20
666;DHT22;315;48.738;9.126;2023-07-09T14:40:52;36.50;29.60
666;DHT22;315;48.738;9.126;2023-07-09T14:43:17;36.70;29.60
666;DHT22;315;48.738;9.126;2023-07-09T14:45:44;36.70;29.40
666;DHT22;315;48.738;9.126;2023-07-09T14:48:15;36.80;29.40
666;DHT22;315;48.738;9.126;2023-07-09T14:50:41;36.90;29.00
666;DHT22;315;48.738;9.126;2023-07-09T14:53:21;37.00;29.50
666;DHT22;315;48.738;9.126;2023-07-09T14:55:47;37.10;29.40
666;DHT22;315;48.738;9.126;2023-07-09T14:58:18;37.20;29.10
666;DHT22;315;48.738;9.126;2023-07-09T15:00:45;37.30;29.30
666;DHT22;315;48.738;9.126;2023-07-09T15:03:17;37.10;29.40
666;DHT22;315;48.738;9.126;2023-07-09T15:05:43;37.30;29.40
666;DHT22;315;48.738;9.126;2023-07-09T15:08:14;37.10;29.70
666;DHT22;315;48.738;9.126;2023-07-09T15:10:41;36.70;30.00
666;DHT22;315;48.738;9.126;2023-07-09T15:13:30;36.60;30.40
666;DHT22;315;48.738;9.126;2023-07-09T15:15:57;36.50;30.10
666;DHT22;315;48.738;9.126;2023-07-09T15:18:23;36.30;30.40
666;DHT22;315;48.738;9.126;2023-07-09T15:20:55;36.10;30.40
666;DHT22;315;48.738;9.126;2023-07-09T15:23:22;36.00;30.60
666;DHT22;315;48.738;9.126;2023-07-09T15:25:48;35.70;30.20
666;DHT22;315;48.738;9.126;2023-07-09T15:28:14;35.70;30.80
666;DHT22;315;48.738;9.126;2023-07-09T15:30:40;35.60;30.70
666;DHT22;315;48.738;9.126;2023-07-09T15:33:15;35.40;31.10
666;DHT22;315;48.738;9.126;2023-07-09T15:35:43;35.30;31.20
666;DHT22;315;48.738;9.126;2023-07-09T15:40:43;35.60;30.70
666;DHT22;315;48.738;9.126;2023-07-09T15:43:09;35.70;30.20
666;DHT22;315;48.738;9.126;2023-07-09T15:45:42;35.80;30.40
666;DHT22;315;48.738;9.126;2023-07-09T15:50:47;36.00;30.80
666;DHT22;315;48.738;9.126;2023-07-09T15:53:12;36.00;30.80
666;DHT22;315;48.738;9.126;2023-07-09T15:55:39;36.10;30.90
666;DHT22;315;48.738;9.126;2023-07-09T15:58:04;36.10;30.90
666;DHT22;315;48.738;9.126;2023-07-09T16:00:31;35.90;30.80
666;DHT22;315;48.738;9.126;2023-07-09T16:02:59;35.60;30.00
666;DHT22;315;48.738;9.126;2023-07-09T16:05:29;35.50;30.50
666;DHT22;315;48.738;9.126;2023-07-09T16:07:57;35.50;30.30
666;DHT22;315;48.738;9.126;2023-07-09T16:10:25;35.50;30.30
666;DHT22;315;48.738;9.126;2023-07-09T16:12:51;35.60;31.20
666;DHT22;315;48.738;9.126;2023-07-09T16:15:21;35.50;30.60
666;DHT22;315;48.738;9.126;2023-07-09T16:17:49;35.50;30.70
666;DHT22;315;48.738;9.126;2023-07-09T16:20:17;35.50;30.80
666;DHT22;315;48.738;9.126;2023-07-09T16:22:46;35.30;31.10
666;DHT22;315;48.738;9.126;2023-07-09T16:25:21;35.10;31.70
666;DHT22;315;48.738;9.126;2023-07-09T16:27:47;35.00;31.40
666;DHT22;315;48.738;9.126;2023-07-09T16:30:19;34.90;31.10
666;DHT22;315;48.738;9.126;2023-07-09T16:32:45;34.90;31.10
666;DHT22;315;48.738;9.126;2023-07-09T16:35:17;34.90;31.20
666;DHT22;315;48.738;9.126;2023-07-09T16:37:43;34.80;31.20
666;DHT22;315;48.738;9.126;2023-07-09T16:40:24;34.90;31.50
666;DHT22;315;48.738;9.126;2023-07-09T16:42:51;34.80;31.80
666;DHT22;315;48.738;9.126;2023-07-09T16:45:19;34.80;31.70
666;DHT22;315;48.738;9.126;2023-07-09T16:47:46;34.60;32.30
666;DHT22;315;48.738;9.126;2023-07-09T16:50:13;34.40;32.80
666;DHT22;315;48.738;9.126;2023-07-09T16:52:41;34.40;32.40
666;DHT22;315;48.738;9.126;2023-07-09T16:55:08;34.30;32.30
666;DHT22;315;48.738;9.126;2023-07-09T16:57:38;34.30;32.50
666;DHT22;315;48.738;9.126;2023-07-09T17:02:50;34.30;32.20
666;DHT22;315;48.738;9.126;2023-07-09T17:05:16;34.30;32.60
666;DHT22;315;48.738;9.126;2023-07-09T17:07:42;34.30;32.50
666;DHT22;315;48.738;9.126;2023-07-09T17:10:12;34.30;33.20
666;DHT22;315;48.738;9.126;2023-07-09T17:12:38;34.30;33.90
666;DHT22;315;48.738;9.126;2023-07-09T17:15:30;34.30;32.40
666;DHT22;315;48.738;9.126;2023-07-09T17:17:57;34.40;32.80
666;DHT22;315;48.738;9.126;2023-07-09T17:20:26;34.70;32.80
666;DHT22;315;48.738;9.126;2023-07-09T17:22:53;34.90;33.10
666;DHT22;315;48.738;9.126;2023-07-09T17:27:48;34.60;31.80
666;DHT22;315;48.738;9.126;2023-07-09T17:30:15;34.50;32.30